Ride Results

Pied Piper Memorial (02-04-2005)
Ride distance: 80.0 km

Outcomes - Pied Piper Memorial (02-04-2005)
Division No. of Entries Retired / DNE Completed Withdrawn Ineligible V/O Percentage Completed
HW 5 - 3 1 - 1 60.00%
MW 14 - 9 2 1 2 64.29%
LW 10 - 8 1 - 1 80.00%
JN 6 - 5 - - 1 83.33%
Totals 35 - 25 4 1 5 71.43%
Results - Pied Piper Memorial (02-04-2005)
No. Rider Horse Place Time Leg Speeds Total
Km/Hr
H/R bpm
Heavyweight
11 Adam Richardson Stoodleigh Bey Abby 1 7:59:00 11.8, 8.6 10.02 38, 41, 55 (Avg:48)
147 Jake Tammens Shayelle Ruben James 2 8:19:00 10.7, 8.6 9.62 30, 39, 48 (Avg:43)
145 Denise Williams Lauralyn Sampson 3 8:21:00 9.9, 9.2 9.58 35, 44, 58 (Avg:51)
97 Mark Green Mill Park Rhamen Heart Rate L2 0:00:00 12.6, 9.4 - 36, 47, 63 (Avg:55)
G Greg Henry Bellawongarah Ibn Riaal Withdrawn L1 0:00:00 - - 58, 50 (Avg:50)
Middleweight
66 Gillian Grant Dunwingeri Baraak 1 6:07:00 16.7, 10.7 13.08 29, 46, 50 (Avg:48)
159 Jane Cutts Lauralyn Banjo 2 7:08:00 12.8, 9.9 11.21 31, 40, 50 (Avg:45)
102 Robyn Nibbs Beer Street Berki 3 7:24:00 14.8, 8.5 10.81 28, 42, 50 (Avg:46)
135 Linda Hanson Pharslee Kaianna 4 8:10:00 10.7, 8.9 9.80 42, 40, 58 (Avg:49)
160 Leonie Stewart Moonwitch 4 8:10:00 10.7, 8.9 9.80 33, 49, 58 (Avg:53)
3 Lee Davis Ibn Karada 6 8:15:00 10.4, 9.0 9.70 41, 44, 58 (Avg:51)
14 Philip Gerke Karshna Pilomen 7 8:19:00 10.7, 8.6 9.62 47, 40, 46 (Avg:43)
99 Kerry Scott Wingara Connor 8 8:20:00 10.7, 8.6 9.60 49, 47, 57 (Avg:52)
90 Jodi Hutchins Carluke Park Royal Crescent 9 8:21:00 9.9, 9.2 9.58 36, 48, 54 (Avg:51)
37 Heather Johnson Davlyn Park Tangala Heart Rate L2 0:00:00 16.6, 10.7 - 30, 44, 64 (Avg:54)
123 Noel Lockhart Jaaharn Heart Rate L2 0:00:00 12.6, 9.4 - 40, 53, 66 (Avg:59)
78 Yukio Yanadae Jemma Out of Time L2 0:00:00 8.6, 8.2 - 35, 45, 54 (Avg:49)
68 Janine Parr Elphyn Prince Withdrawn L1 0:00:00 - - 34, 54 (Avg:54)
38 Tony Purton Beer Street Reuben Withdrawn L1 0:00:00 - - 33, 49 (Avg:49)
Lightweight
80 Jessica Bramich Kurrajong Zephyr 1 6:47:00 16.1, 9.3 11.79 34, 43, 54 (Avg:48)
45 Anita Hutchins Eaton Park Passion 2 7:08:00 12.8, 9.9 11.21 39, 48, 56 (Avg:52)
94 Megan Brown Rolington Tyson 3 7:40:00 10.9, 9.9 10.43 36, 47, 53 (Avg:50)
19 Jill Lowth Lauralyn Shazaza 4 8:12:00 12.6, 7.9 9.76 32, 45, 58 (Avg:51)
23 Tracey Nutting Capleach Shadowy Lustre 4 8:12:00 10.2, 9.3 9.76 38, 37, 43 (Avg:40)
22 Kendal McIntee Rothlynne Dark Edition 6 8:21:00 9.9, 9.2 9.58 32, 41, 53 (Avg:47)
48 Toni Sheehan Sandine Rosslare 6 8:21:00 10.0, 9.1 9.58 33, 48, 59 (Avg:53)
29 Sonia Hodgetts Highland View Dasha 8 8:30:00 8.6, 10.3 9.41 31, 43, 55 (Avg:49)
148 Alison Simpson Bellawongarah Holly Heart Rate L2 0:00:00 11.8, 8.6 - 39, 51, 64 (Avg:57)
55 Jane Stratton Prince Rillian Withdrawn L1 0:00:00 - - 42, 45 (Avg:45)
Junior
110 Shannon Hill Storm 1 7:24:00 12.6, 9.4 10.81 40, 52, 55 (Avg:53)
61 Emma Ebbelaar Pippa 2 7:40:00 10.9, 9.9 10.43 36, 36, 51 (Avg:43)
64 Jacob Burke Highland View Fly 3 8:21:00 8.5, 10.8 9.58 36, 49, 52 (Avg:50)
98 Dimity Schofield Highland View Bette 3 8:21:00 8.5, 10.8 9.58 34, 46, 49 (Avg:47)
126 Ember Lockhart Kolahai Shavu 5 8:24:00 12.6, 7.6 9.52 33, 42, 46 (Avg:44)
146 Brad Hill Mirella Lame L1 0:00:00 12.6 - 34, 41 (Avg:41)